sensor_id;sensor_type;location;lat;lon;timestamp;P1;durP1;ratioP1;P2;durP2;ratioP2
25479;SDS011;13393;49.378;8.686;2023-10-19T00:02:08;11.15;;;8.50;;
25479;SDS011;13393;49.378;8.686;2023-10-19T00:04:33;11.55;;;9.52;;
25479;SDS011;13393;49.378;8.686;2023-10-19T00:07:01;12.18;;;9.80;;
25479;SDS011;13393;49.378;8.686;2023-10-19T00:09:26;12.70;;;9.40;;
25479;SDS011;13393;49.378;8.686;2023-10-19T00:12:02;11.52;;;10.10;;
25479;SDS011;13393;49.378;8.686;2023-10-19T00:14:28;10.88;;;9.77;;
25479;SDS011;13393;49.378;8.686;2023-10-19T00:16:54;12.68;;;10.20;;
25479;SDS011;13393;49.378;8.686;2023-10-19T00:19:25;10.85;;;9.75;;
25479;SDS011;13393;49.378;8.686;2023-10-19T00:21:53;11.18;;;9.57;;
25479;SDS011;13393;49.378;8.686;2023-10-19T00:24:20;14.25;;;10.00;;
25479;SDS011;13393;49.378;8.686;2023-10-19T00:26:48;11.95;;;9.60;;
25479;SDS011;13393;49.378;8.686;2023-10-19T00:29:18;13.85;;;10.63;;
25479;SDS011;13393;49.378;8.686;2023-10-19T00:31:56;13.35;;;11.10;;
25479;SDS011;13393;49.378;8.686;2023-10-19T00:34:23;13.25;;;10.90;;
25479;SDS011;13393;49.378;8.686;2023-10-19T00:36:50;12.25;;;10.98;;
25479;SDS011;13393;49.378;8.686;2023-10-19T00:39:17;13.57;;;10.88;;
25479;SDS011;13393;49.378;8.686;2023-10-19T00:41:46;11.48;;;10.27;;
25479;SDS011;13393;49.378;8.686;2023-10-19T00:44:14;10.80;;;9.70;;
25479;SDS011;13393;49.378;8.686;2023-10-19T00:46:44;10.38;;;9.32;;
25479;SDS011;13393;49.378;8.686;2023-10-19T00:49:15;9.55;;;8.52;;
25479;SDS011;13393;49.378;8.686;2023-10-19T00:51:43;9.65;;;7.28;;
25479;SDS011;13393;49.378;8.686;2023-10-19T00:54:21;7.03;;;6.32;;
25479;SDS011;13393;49.378;8.686;2023-10-19T00:56:51;8.88;;;6.47;;
25479;SDS011;13393;49.378;8.686;2023-10-19T00:59:21;7.47;;;6.20;;
25479;SDS011;13393;49.378;8.686;2023-10-19T01:01:51;11.40;;;7.45;;
25479;SDS011;13393;49.378;8.686;2023-10-19T01:04:19;8.85;;;7.95;;
25479;SDS011;13393;49.378;8.686;2023-10-19T01:06:48;9.18;;;7.72;;
25479;SDS011;13393;49.378;8.686;2023-10-19T01:09:26;8.80;;;7.10;;
25479;SDS011;13393;49.378;8.686;2023-10-19T01:11:53;8.68;;;7.45;;
25479;SDS011;13393;49.378;8.686;2023-10-19T01:14:19;9.90;;;8.20;;
25479;SDS011;13393;49.378;8.686;2023-10-19T01:16:47;8.82;;;7.65;;
25479;SDS011;13393;49.378;8.686;2023-10-19T01:19:16;8.15;;;7.35;;
25479;SDS011;13393;49.378;8.686;2023-10-19T01:21:43;8.82;;;7.90;;
25479;SDS011;13393;49.378;8.686;2023-10-19T01:24:13;9.70;;;7.75;;
25479;SDS011;13393;49.378;8.686;2023-10-19T01:26:41;13.43;;;8.07;;
25479;SDS011;13393;49.378;8.686;2023-10-19T01:29:08;9.80;;;8.80;;
25479;SDS011;13393;49.378;8.686;2023-10-19T01:31:38;10.43;;;8.55;;
25479;SDS011;13393;49.378;8.686;2023-10-19T01:34:16;10.98;;;8.30;;
25479;SDS011;13393;49.378;8.686;2023-10-19T01:36:45;8.05;;;7.10;;
25479;SDS011;13393;49.378;8.686;2023-10-19T01:39:16;8.93;;;7.90;;
25479;SDS011;13393;49.378;8.686;2023-10-19T01:41:43;10.85;;;7.43;;
25479;SDS011;13393;49.378;8.686;2023-10-19T01:44:10;9.57;;;7.25;;
25479;SDS011;13393;49.378;8.686;2023-10-19T01:46:38;8.50;;;7.70;;
25479;SDS011;13393;49.378;8.686;2023-10-19T01:49:06;8.30;;;7.28;;
25479;SDS011;13393;49.378;8.686;2023-10-19T01:51:33;8.57;;;6.78;;
25479;SDS011;13393;49.378;8.686;2023-10-19T01:54:03;9.07;;;6.97;;
25479;SDS011;13393;49.378;8.686;2023-10-19T01:56:31;8.63;;;7.25;;
25479;SDS011;13393;49.378;8.686;2023-10-19T01:59:01;8.48;;;7.22;;
25479;SDS011;13393;49.378;8.686;2023-10-19T02:01:29;7.60;;;6.88;;
25479;SDS011;13393;49.378;8.686;2023-10-19T02:03:54;7.32;;;6.60;;
25479;SDS011;13393;49.378;8.686;2023-10-19T02:06:23;8.85;;;7.78;;
25479;SDS011;13393;49.378;8.686;2023-10-19T02:08:52;8.75;;;7.85;;
25479;SDS011;13393;49.378;8.686;2023-10-19T02:11:22;9.52;;;7.95;;
25479;SDS011;13393;49.378;8.686;2023-10-19T02:13:51;8.77;;;7.82;;
25479;SDS011;13393;49.378;8.686;2023-10-19T02:16:17;9.27;;;7.90;;
25479;SDS011;13393;49.378;8.686;2023-10-19T02:18:48;10.68;;;7.60;;
25479;SDS011;13393;49.378;8.686;2023-10-19T02:21:14;9.13;;;8.07;;
25479;SDS011;13393;49.378;8.686;2023-10-19T02:23:47;8.95;;;8.05;;
25479;SDS011;13393;49.378;8.686;2023-10-19T02:26:15;8.98;;;7.78;;
25479;SDS011;13393;49.378;8.686;2023-10-19T02:28:41;7.88;;;7.07;;
25479;SDS011;13393;49.378;8.686;2023-10-19T02:31:10;9.60;;;8.35;;
25479;SDS011;13393;49.378;8.686;2023-10-19T02:33:44;9.15;;;7.47;;
25479;SDS011;13393;49.378;8.686;2023-10-19T02:36:11;10.20;;;8.02;;
25479;SDS011;13393;49.378;8.686;2023-10-19T02:38:41;11.60;;;8.05;;
25479;SDS011;13393;49.378;8.686;2023-10-19T02:41:08;11.35;;;8.32;;
25479;SDS011;13393;49.378;8.686;2023-10-19T02:43:36;10.25;;;8.20;;
25479;SDS011;13393;49.378;8.686;2023-10-19T02:46:02;11.27;;;8.73;;
25479;SDS011;13393;49.378;8.686;2023-10-19T02:48:30;9.52;;;8.30;;
25479;SDS011;13393;49.378;8.686;2023-10-19T02:50:56;10.75;;;9.10;;
25479;SDS011;13393;49.378;8.686;2023-10-19T02:55:56;11.68;;;8.18;;
25479;SDS011;13393;49.378;8.686;2023-10-19T02:58:24;10.15;;;8.80;;
25479;SDS011;13393;49.378;8.686;2023-10-19T03:00:54;10.95;;;8.52;;
25479;SDS011;13393;49.378;8.686;2023-10-19T03:03:21;11.13;;;9.00;;
25479;SDS011;13393;49.378;8.686;2023-10-19T03:05:48;10.23;;;9.23;;
25479;SDS011;13393;49.378;8.686;2023-10-19T03:08:16;10.98;;;9.88;;
25479;SDS011;13393;49.378;8.686;2023-10-19T03:10:44;12.23;;;10.30;;
25479;SDS011;13393;49.378;8.686;2023-10-19T03:13:11;10.07;;;9.07;;
25479;SDS011;13393;49.378;8.686;2023-10-19T03:15:40;11.77;;;10.15;;
25479;SDS011;13393;49.378;8.686;2023-10-19T03:18:08;10.95;;;9.18;;
25479;SDS011;13393;49.378;8.686;2023-10-19T03:20:33;9.95;;;8.95;;
25479;SDS011;13393;49.378;8.686;2023-10-19T03:23:05;10.85;;;9.43;;
25479;SDS011;13393;49.378;8.686;2023-10-19T03:25:30;12.30;;;9.43;;
25479;SDS011;13393;49.378;8.686;2023-10-19T03:28:14;13.02;;;9.00;;
25479;SDS011;13393;49.378;8.686;2023-10-19T03:30:43;11.30;;;9.23;;
25479;SDS011;13393;49.378;8.686;2023-10-19T03:33:08;12.77;;;8.88;;
25479;SDS011;13393;49.378;8.686;2023-10-19T03:35:36;11.15;;;9.40;;
25479;SDS011;13393;49.378;8.686;2023-10-19T03:38:08;11.13;;;9.23;;
25479;SDS011;13393;49.378;8.686;2023-10-19T03:40:39;10.13;;;8.50;;
25479;SDS011;13393;49.378;8.686;2023-10-19T03:43:06;9.95;;;8.20;;
25479;SDS011;13393;49.378;8.686;2023-10-19T03:45:42;11.98;;;7.63;;
25479;SDS011;13393;49.378;8.686;2023-10-19T03:48:14;9.48;;;7.88;;
25479;SDS011;13393;49.378;8.686;2023-10-19T03:50:42;9.60;;;7.60;;
25479;SDS011;13393;49.378;8.686;2023-10-19T03:53:10;11.20;;;7.30;;
25479;SDS011;13393;49.378;8.686;2023-10-19T03:55:38;10.38;;;7.10;;
25479;SDS011;13393;49.378;8.686;2023-10-19T03:58:08;9.02;;;7.25;;
25479;SDS011;13393;49.378;8.686;2023-10-19T04:00:37;9.23;;;7.63;;
25479;SDS011;13393;49.378;8.686;2023-10-19T04:03:04;11.75;;;6.78;;
25479;SDS011;13393;49.378;8.686;2023-10-19T04:05:30;7.13;;;6.43;;
25479;SDS011;13393;49.378;8.686;2023-10-19T04:08:00;7.10;;;5.75;;
25479;SDS011;13393;49.378;8.686;2023-10-19T04:10:34;6.47;;;5.65;;
25479;SDS011;13393;49.378;8.686;2023-10-19T04:13:09;7.55;;;5.30;;
25479;SDS011;13393;49.378;8.686;2023-10-19T04:15:36;8.13;;;5.93;;
25479;SDS011;13393;49.378;8.686;2023-10-19T04:18:03;4.97;;;4.28;;
25479;SDS011;13393;49.378;8.686;2023-10-19T04:20:33;4.50;;;3.72;;
25479;SDS011;13393;49.378;8.686;2023-10-19T04:23:07;4.75;;;3.65;;
25479;SDS011;13393;49.378;8.686;2023-10-19T04:25:37;4.05;;;3.53;;
25479;SDS011;13393;49.378;8.686;2023-10-19T04:28:04;5.43;;;4.45;;
25479;SDS011;13393;49.378;8.686;2023-10-19T04:30:31;7.30;;;4.25;;
25479;SDS011;13393;49.378;8.686;2023-10-19T04:32:58;4.85;;;3.80;;
25479;SDS011;13393;49.378;8.686;2023-10-19T04:35:26;6.72;;;4.07;;
25479;SDS011;13393;49.378;8.686;2023-10-19T04:37:55;5.72;;;3.92;;
25479;SDS011;13393;49.378;8.686;2023-10-19T04:40:22;7.85;;;4.05;;
25479;SDS011;13393;49.378;8.686;2023-10-19T04:42:50;8.07;;;4.25;;
25479;SDS011;13393;49.378;8.686;2023-10-19T04:45:17;4.63;;;3.40;;
25479;SDS011;13393;49.378;8.686;2023-10-19T04:47:44;6.25;;;4.30;;
25479;SDS011;13393;49.378;8.686;2023-10-19T04:50:11;8.07;;;3.90;;
25479;SDS011;13393;49.378;8.686;2023-10-19T04:52:38;9.30;;;3.90;;
25479;SDS011;13393;49.378;8.686;2023-10-19T04:55:05;4.88;;;3.80;;
25479;SDS011;13393;49.378;8.686;2023-10-19T04:57:31;8.80;;;4.00;;
25479;SDS011;13393;49.378;8.686;2023-10-19T05:00:00;10.25;;;4.72;;
25479;SDS011;13393;49.378;8.686;2023-10-19T05:02:26;7.78;;;4.80;;
25479;SDS011;13393;49.378;8.686;2023-10-19T05:04:52;9.00;;;4.55;;
25479;SDS011;13393;49.378;8.686;2023-10-19T05:07:19;8.05;;;4.75;;
25479;SDS011;13393;49.378;8.686;2023-10-19T05:09:46;8.35;;;5.22;;
25479;SDS011;13393;49.378;8.686;2023-10-19T05:12:13;8.57;;;5.13;;
25479;SDS011;13393;49.378;8.686;2023-10-19T05:14:39;5.47;;;4.93;;
25479;SDS011;13393;49.378;8.686;2023-10-19T05:17:09;6.53;;;5.13;;
25479;SDS011;13393;49.378;8.686;2023-10-19T05:19:37;11.02;;;6.22;;
25479;SDS011;13393;49.378;8.686;2023-10-19T05:22:05;7.50;;;5.60;;
25479;SDS011;13393;49.378;8.686;2023-10-19T05:24:32;7.07;;;5.82;;
25479;SDS011;13393;49.378;8.686;2023-10-19T05:26:58;9.75;;;6.13;;
25479;SDS011;13393;49.378;8.686;2023-10-19T05:29:25;7.45;;;5.93;;
25479;SDS011;13393;49.378;8.686;2023-10-19T05:31:52;6.50;;;5.57;;
25479;SDS011;13393;49.378;8.686;2023-10-19T05:34:23;10.25;;;6.35;;
25479;SDS011;13393;49.378;8.686;2023-10-19T05:36:51;10.82;;;6.43;;
25479;SDS011;13393;49.378;8.686;2023-10-19T05:39:19;8.80;;;6.90;;
25479;SDS011;13393;49.378;8.686;2023-10-19T05:41:46;10.48;;;7.05;;
25479;SDS011;13393;49.378;8.686;2023-10-19T05:44:12;9.48;;;6.78;;
25479;SDS011;13393;49.378;8.686;2023-10-19T05:46:38;11.23;;;7.07;;
25479;SDS011;13393;49.378;8.686;2023-10-19T05:49:05;11.18;;;7.15;;
25479;SDS011;13393;49.378;8.686;2023-10-19T05:51:34;9.43;;;6.70;;
25479;SDS011;13393;49.378;8.686;2023-10-19T05:54:01;11.98;;;7.53;;
25479;SDS011;13393;49.378;8.686;2023-10-19T05:56:28;8.45;;;6.88;;
25479;SDS011;13393;49.378;8.686;2023-10-19T05:58:55;9.98;;;7.22;;
25479;SDS011;13393;49.378;8.686;2023-10-19T06:01:22;9.77;;;6.88;;
25479;SDS011;13393;49.378;8.686;2023-10-19T06:03:48;10.23;;;6.75;;
25479;SDS011;13393;49.378;8.686;2023-10-19T06:06:16;8.70;;;7.03;;
25479;SDS011;13393;49.378;8.686;2023-10-19T06:08:46;12.52;;;7.60;;
25479;SDS011;13393;49.378;8.686;2023-10-19T06:11:13;9.60;;;7.10;;
25479;SDS011;13393;49.378;8.686;2023-10-19T06:13:39;8.57;;;7.70;;
25479;SDS011;13393;49.378;8.686;2023-10-19T06:16:06;9.10;;;6.88;;
25479;SDS011;13393;49.378;8.686;2023-10-19T06:18:33;9.68;;;7.28;;
25479;SDS011;13393;49.378;8.686;2023-10-19T06:20:59;10.00;;;7.05;;
25479;SDS011;13393;49.378;8.686;2023-10-19T06:23:25;9.27;;;7.32;;
25479;SDS011;13393;49.378;8.686;2023-10-19T06:25:53;10.45;;;7.03;;
25479;SDS011;13393;49.378;8.686;2023-10-19T06:28:20;11.25;;;7.72;;
25479;SDS011;13393;49.378;8.686;2023-10-19T06:30:46;13.15;;;7.15;;
25479;SDS011;13393;49.378;8.686;2023-10-19T06:33:14;9.30;;;7.80;;
25479;SDS011;13393;49.378;8.686;2023-10-19T06:35:40;10.10;;;7.47;;
25479;SDS011;13393;49.378;8.686;2023-10-19T06:38:06;9.07;;;7.47;;
25479;SDS011;13393;49.378;8.686;2023-10-19T06:40:34;10.20;;;7.38;;
25479;SDS011;13393;49.378;8.686;2023-10-19T06:43:04;11.10;;;6.80;;
25479;SDS011;13393;49.378;8.686;2023-10-19T06:45:30;11.82;;;7.22;;
25479;SDS011;13393;49.378;8.686;2023-10-19T06:47:57;12.15;;;7.28;;
25479;SDS011;13393;49.378;8.686;2023-10-19T06:50:25;13.18;;;8.63;;
25479;SDS011;13393;49.378;8.686;2023-10-19T06:52:52;13.80;;;8.23;;
25479;SDS011;13393;49.378;8.686;2023-10-19T06:55:20;9.90;;;7.63;;
25479;SDS011;13393;49.378;8.686;2023-10-19T06:57:47;8.57;;;7.30;;
25479;SDS011;13393;49.378;8.686;2023-10-19T07:00:16;11.95;;;7.30;;
25479;SDS011;13393;49.378;8.686;2023-10-19T07:02:44;10.98;;;7.38;;
25479;SDS011;13393;49.378;8.686;2023-10-19T07:05:11;7.53;;;6.43;;
25479;SDS011;13393;49.378;8.686;2023-10-19T07:07:39;9.60;;;7.22;;
25479;SDS011;13393;49.378;8.686;2023-10-19T07:10:07;8.13;;;6.47;;
25479;SDS011;13393;49.378;8.686;2023-10-19T07:12:34;7.70;;;6.60;;
25479;SDS011;13393;49.378;8.686;2023-10-19T07:15:01;9.25;;;6.50;;
25479;SDS011;13393;49.378;8.686;2023-10-19T07:17:29;8.35;;;6.70;;
25479;SDS011;13393;49.378;8.686;2023-10-19T07:19:57;8.95;;;6.07;;
25479;SDS011;13393;49.378;8.686;2023-10-19T07:22:23;7.72;;;5.97;;
25479;SDS011;13393;49.378;8.686;2023-10-19T07:24:50;8.45;;;6.72;;
25479;SDS011;13393;49.378;8.686;2023-10-19T07:27:16;11.10;;;6.65;;
25479;SDS011;13393;49.378;8.686;2023-10-19T07:29:44;10.45;;;6.53;;
25479;SDS011;13393;49.378;8.686;2023-10-19T07:32:12;12.50;;;6.57;;
25479;SDS011;13393;49.378;8.686;2023-10-19T07:34:43;11.70;;;6.18;;
25479;SDS011;13393;49.378;8.686;2023-10-19T07:37:11;10.43;;;5.93;;
25479;SDS011;13393;49.378;8.686;2023-10-19T07:39:40;8.23;;;5.20;;
25479;SDS011;13393;49.378;8.686;2023-10-19T07:42:07;11.43;;;6.22;;
25479;SDS011;13393;49.378;8.686;2023-10-19T07:44:34;8.50;;;5.55;;
25479;SDS011;13393;49.378;8.686;2023-10-19T07:47:02;22.70;;;7.70;;
25479;SDS011;13393;49.378;8.686;2023-10-19T07:49:29;19.80;;;6.72;;
25479;SDS011;13393;49.378;8.686;2023-10-19T07:51:57;11.23;;;5.78;;
25479;SDS011;13393;49.378;8.686;2023-10-19T07:54:24;12.80;;;6.10;;
25479;SDS011;13393;49.378;8.686;2023-10-19T07:56:52;7.95;;;5.45;;
25479;SDS011;13393;49.378;8.686;2023-10-19T07:59:19;7.50;;;5.47;;
25479;SDS011;13393;49.378;8.686;2023-10-19T08:01:46;9.43;;;5.60;;
25479;SDS011;13393;49.378;8.686;2023-10-19T08:04:13;10.20;;;5.70;;
25479;SDS011;13393;49.378;8.686;2023-10-19T08:06:39;9.20;;;5.47;;
25479;SDS011;13393;49.378;8.686;2023-10-19T08:09:07;10.93;;;5.50;;
25479;SDS011;13393;49.378;8.686;2023-10-19T08:11:36;8.50;;;5.30;;
25479;SDS011;13393;49.378;8.686;2023-10-19T08:14:03;5.10;;;4.63;;
25479;SDS011;13393;49.378;8.686;2023-10-19T08:16:30;7.97;;;5.70;;
25479;SDS011;13393;49.378;8.686;2023-10-19T08:18:57;6.95;;;5.10;;
25479;SDS011;13393;49.378;8.686;2023-10-19T08:21:23;7.00;;;5.25;;
25479;SDS011;13393;49.378;8.686;2023-10-19T08:23:50;11.55;;;5.35;;
25479;SDS011;13393;49.378;8.686;2023-10-19T08:26:18;8.35;;;4.90;;
25479;SDS011;13393;49.378;8.686;2023-10-19T08:28:48;6.53;;;4.63;;
25479;SDS011;13393;49.378;8.686;2023-10-19T08:31:14;8.48;;;4.90;;
25479;SDS011;13393;49.378;8.686;2023-10-19T08:33:41;8.48;;;4.50;;
25479;SDS011;13393;49.378;8.686;2023-10-19T08:36:15;5.43;;;4.22;;
25479;SDS011;13393;49.378;8.686;2023-10-19T08:38:44;7.60;;;4.45;;
25479;SDS011;13393;49.378;8.686;2023-10-19T08:41:11;5.88;;;4.82;;
25479;SDS011;13393;49.378;8.686;2023-10-19T08:43:39;4.65;;;4.15;;
25479;SDS011;13393;49.378;8.686;2023-10-19T08:46:05;4.82;;;4.10;;
25479;SDS011;13393;49.378;8.686;2023-10-19T08:48:33;6.28;;;4.57;;
25479;SDS011;13393;49.378;8.686;2023-10-19T08:51:02;7.32;;;4.30;;
25479;SDS011;13393;49.378;8.686;2023-10-19T08:53:29;5.25;;;4.05;;
25479;SDS011;13393;49.378;8.686;2023-10-19T08:55:56;5.07;;;3.80;;
25479;SDS011;13393;49.378;8.686;2023-10-19T08:58:25;5.95;;;3.83;;
25479;SDS011;13393;49.378;8.686;2023-10-19T09:00:54;4.82;;;3.40;;
25479;SDS011;13393;49.378;8.686;2023-10-19T09:03:21;5.63;;;3.60;;
25479;SDS011;13393;49.378;8.686;2023-10-19T09:05:49;5.22;;;4.00;;
25479;SDS011;13393;49.378;8.686;2023-10-19T09:08:16;4.63;;;3.40;;
25479;SDS011;13393;49.378;8.686;2023-10-19T09:10:43;5.45;;;3.90;;
25479;SDS011;13393;49.378;8.686;2023-10-19T09:13:12;6.38;;;3.80;;
25479;SDS011;13393;49.378;8.686;2023-10-19T09:15:41;11.88;;;3.60;;
25479;SDS011;13393;49.378;8.686;2023-10-19T09:18:13;9.75;;;3.58;;
25479;SDS011;13393;49.378;8.686;2023-10-19T09:20:40;7.25;;;4.03;;
25479;SDS011;13393;49.378;8.686;2023-10-19T09:23:12;5.25;;;3.65;;
25479;SDS011;13393;49.378;8.686;2023-10-19T09:25:39;6.13;;;3.63;;
25479;SDS011;13393;49.378;8.686;2023-10-19T09:28:07;7.53;;;3.63;;
25479;SDS011;13393;49.378;8.686;2023-10-19T09:30:35;6.32;;;3.58;;
25479;SDS011;13393;49.378;8.686;2023-10-19T09:33:04;9.85;;;4.05;;
25479;SDS011;13393;49.378;8.686;2023-10-19T09:35:33;7.03;;;3.58;;
25479;SDS011;13393;49.378;8.686;2023-10-19T09:38:02;5.40;;;3.75;;
25479;SDS011;13393;49.378;8.686;2023-10-19T09:40:31;8.00;;;3.72;;
25479;SDS011;13393;49.378;8.686;2023-10-19T09:42:58;8.43;;;3.67;;
25479;SDS011;13393;49.378;8.686;2023-10-19T09:45:26;5.95;;;3.22;;
25479;SDS011;13393;49.378;8.686;2023-10-19T09:47:53;7.07;;;2.78;;
25479;SDS011;13393;49.378;8.686;2023-10-19T09:50:21;6.18;;;3.50;;
25479;SDS011;13393;49.378;8.686;2023-10-19T09:52:49;3.13;;;2.38;;
25479;SDS011;13393;49.378;8.686;2023-10-19T09:55:17;3.25;;;2.50;;
25479;SDS011;13393;49.378;8.686;2023-10-19T09:57:49;5.57;;;2.47;;
25479;SDS011;13393;49.378;8.686;2023-10-19T10:00:17;3.20;;;2.20;;
25479;SDS011;13393;49.378;8.686;2023-10-19T10:02:49;8.20;;;2.65;;
25479;SDS011;13393;49.378;8.686;2023-10-19T10:10:28;4.20;;;2.15;;
25479;SDS011;13393;49.378;8.686;2023-10-19T10:12:54;2.33;;;1.90;;
25479;SDS011;13393;49.378;8.686;2023-10-19T10:15:21;5.47;;;2.33;;
25479;SDS011;13393;49.378;8.686;2023-10-19T10:18:11;4.30;;;2.00;;
25479;SDS011;13393;49.378;8.686;2023-10-19T10:20:38;4.32;;;2.25;;
25479;SDS011;13393;49.378;8.686;2023-10-19T10:23:15;3.95;;;2.17;;
25479;SDS011;13393;49.378;8.686;2023-10-19T10:25:44;3.45;;;2.10;;
25479;SDS011;13393;49.378;8.686;2023-10-19T10:28:13;6.43;;;1.90;;
25479;SDS011;13393;49.378;8.686;2023-10-19T10:36:04;2.63;;;1.70;;
25479;SDS011;13393;49.378;8.686;2023-10-19T10:38:32;3.88;;;1.70;;
25479;SDS011;13393;49.378;8.686;2023-10-19T10:41:01;4.22;;;1.90;;
25479;SDS011;13393;49.378;8.686;2023-10-19T10:43:28;5.05;;;2.95;;
25479;SDS011;13393;49.378;8.686;2023-10-19T10:46:02;2.75;;;1.98;;
25479;SDS011;13393;49.378;8.686;2023-10-19T10:48:29;2.55;;;1.70;;
25479;SDS011;13393;49.378;8.686;2023-10-19T10:50:55;3.20;;;1.52;;
25479;SDS011;13393;49.378;8.686;2023-10-19T10:53:22;3.65;;;1.83;;
25479;SDS011;13393;49.378;8.686;2023-10-19T10:55:51;2.92;;;1.80;;
25479;SDS011;13393;49.378;8.686;2023-10-19T10:58:20;3.53;;;1.95;;
25479;SDS011;13393;49.378;8.686;2023-10-19T11:00:45;4.47;;;1.98;;
25479;SDS011;13393;49.378;8.686;2023-10-19T11:03:14;3.60;;;1.88;;
25479;SDS011;13393;49.378;8.686;2023-10-19T11:05:41;3.17;;;1.70;;
25479;SDS011;13393;49.378;8.686;2023-10-19T11:08:10;3.58;;;2.17;;
25479;SDS011;13393;49.378;8.686;2023-10-19T11:10:38;9.60;;;2.17;;
25479;SDS011;13393;49.378;8.686;2023-10-19T11:13:05;3.47;;;1.90;;
25479;SDS011;13393;49.378;8.686;2023-10-19T11:15:33;3.65;;;1.60;;
25479;SDS011;13393;49.378;8.686;2023-10-19T11:18:00;3.20;;;2.10;;
25479;SDS011;13393;49.378;8.686;2023-10-19T11:20:27;3.17;;;1.85;;
25479;SDS011;13393;49.378;8.686;2023-10-19T11:22:54;4.60;;;2.17;;
25479;SDS011;13393;49.378;8.686;2023-10-19T11:25:22;2.95;;;2.00;;
25479;SDS011;13393;49.378;8.686;2023-10-19T11:27:53;6.00;;;2.08;;
25479;SDS011;13393;49.378;8.686;2023-10-19T11:30:22;2.10;;;1.90;;
25479;SDS011;13393;49.378;8.686;2023-10-19T11:32:50;2.90;;;1.90;;
25479;SDS011;13393;49.378;8.686;2023-10-19T11:35:21;3.95;;;2.20;;
25479;SDS011;13393;49.378;8.686;2023-10-19T11:37:48;2.90;;;2.05;;
25479;SDS011;13393;49.378;8.686;2023-10-19T11:40:15;2.15;;;1.92;;
25479;SDS011;13393;49.378;8.686;2023-10-19T11:42:42;2.15;;;1.88;;
25479;SDS011;13393;49.378;8.686;2023-10-19T11:45:08;2.88;;;2.15;;
25479;SDS011;13393;49.378;8.686;2023-10-19T11:47:36;4.93;;;2.13;;
25479;SDS011;13393;49.378;8.686;2023-10-19T11:50:05;4.38;;;2.17;;
25479;SDS011;13393;49.378;8.686;2023-10-19T11:52:32;2.60;;;2.10;;
25479;SDS011;13393;49.378;8.686;2023-10-19T11:54:59;3.92;;;2.03;;
25479;SDS011;13393;49.378;8.686;2023-10-19T11:57:25;3.78;;;2.20;;
25479;SDS011;13393;49.378;8.686;2023-10-19T11:59:52;2.67;;;2.25;;
25479;SDS011;13393;49.378;8.686;2023-10-19T12:02:18;5.53;;;2.50;;
25479;SDS011;13393;49.378;8.686;2023-10-19T12:04:45;3.88;;;2.58;;
25479;SDS011;13393;49.378;8.686;2023-10-19T12:07:13;3.72;;;2.13;;
25479;SDS011;13393;49.378;8.686;2023-10-19T12:09:40;3.20;;;2.55;;
25479;SDS011;13393;49.378;8.686;2023-10-19T12:12:07;3.38;;;2.17;;
25479;SDS011;13393;49.378;8.686;2023-10-19T12:14:34;4.18;;;2.88;;
25479;SDS011;13393;49.378;8.686;2023-10-19T12:17:00;5.45;;;4.40;;
25479;SDS011;13393;49.378;8.686;2023-10-19T12:19:27;7.13;;;4.78;;
25479;SDS011;13393;49.378;8.686;2023-10-19T12:21:54;5.60;;;5.03;;
25479;SDS011;13393;49.378;8.686;2023-10-19T12:24:22;8.85;;;5.65;;
25479;SDS011;13393;49.378;8.686;2023-10-19T12:26:49;6.40;;;4.72;;
25479;SDS011;13393;49.378;8.686;2023-10-19T12:29:16;8.05;;;5.35;;
25479;SDS011;13393;49.378;8.686;2023-10-19T12:31:46;6.93;;;5.45;;
25479;SDS011;13393;49.378;8.686;2023-10-19T12:34:12;4.60;;;4.20;;
25479;SDS011;13393;49.378;8.686;2023-10-19T12:36:39;6.22;;;4.32;;
25479;SDS011;13393;49.378;8.686;2023-10-19T12:39:06;7.35;;;4.38;;
25479;SDS011;13393;49.378;8.686;2023-10-19T12:41:35;6.32;;;3.88;;
25479;SDS011;13393;49.378;8.686;2023-10-19T12:44:01;6.05;;;3.83;;
25479;SDS011;13393;49.378;8.686;2023-10-19T12:46:34;6.07;;;3.90;;
25479;SDS011;13393;49.378;8.686;2023-10-19T12:49:02;6.72;;;4.05;;
25479;SDS011;13393;49.378;8.686;2023-10-19T12:51:33;6.28;;;3.13;;
25479;SDS011;13393;49.378;8.686;2023-10-19T12:54:00;5.82;;;3.30;;
25479;SDS011;13393;49.378;8.686;2023-10-19T12:56:28;6.82;;;2.88;;
25479;SDS011;13393;49.378;8.686;2023-10-19T12:59:00;5.93;;;3.17;;
25479;SDS011;13393;49.378;8.686;2023-10-19T13:01:27;6.32;;;3.53;;
25479;SDS011;13393;49.378;8.686;2023-10-19T13:03:58;6.03;;;3.72;;
25479;SDS011;13393;49.378;8.686;2023-10-19T13:06:31;6.32;;;3.70;;
25479;SDS011;13393;49.378;8.686;2023-10-19T13:08:58;7.97;;;3.30;;
25479;SDS011;13393;49.378;8.686;2023-10-19T13:11:25;13.23;;;3.78;;
25479;SDS011;13393;49.378;8.686;2023-10-19T13:13:52;11.65;;;3.45;;
25479;SDS011;13393;49.378;8.686;2023-10-19T13:16:20;6.90;;;3.33;;
25479;SDS011;13393;49.378;8.686;2023-10-19T13:18:46;5.35;;;3.22;;
25479;SDS011;13393;49.378;8.686;2023-10-19T13:21:14;6.57;;;3.47;;
25479;SDS011;13393;49.378;8.686;2023-10-19T13:23:47;6.63;;;3.63;;
25479;SDS011;13393;49.378;8.686;2023-10-19T13:26:13;5.38;;;3.20;;
25479;SDS011;13393;49.378;8.686;2023-10-19T13:28:43;6.47;;;3.30;;
25479;SDS011;13393;49.378;8.686;2023-10-19T13:31:10;5.95;;;3.60;;
25479;SDS011;13393;49.378;8.686;2023-10-19T13:33:40;4.93;;;3.58;;
25479;SDS011;13393;49.378;8.686;2023-10-19T13:36:09;6.78;;;3.70;;
25479;SDS011;13393;49.378;8.686;2023-10-19T13:38:35;9.05;;;4.45;;
25479;SDS011;13393;49.378;8.686;2023-10-19T13:41:03;5.32;;;3.88;;
25479;SDS011;13393;49.378;8.686;2023-10-19T13:43:32;5.80;;;3.83;;
25479;SDS011;13393;49.378;8.686;2023-10-19T13:45:58;5.22;;;3.45;;
25479;SDS011;13393;49.378;8.686;2023-10-19T13:48:28;7.35;;;3.63;;
25479;SDS011;13393;49.378;8.686;2023-10-19T13:50:56;6.00;;;3.40;;
25479;SDS011;13393;49.378;8.686;2023-10-19T13:53:37;6.28;;;3.72;;
25479;SDS011;13393;49.378;8.686;2023-10-19T13:56:06;4.75;;;3.13;;
25479;SDS011;13393;49.378;8.686;2023-10-19T13:58:34;4.53;;;3.28;;
25479;SDS011;13393;49.378;8.686;2023-10-19T14:01:00;6.15;;;3.50;;
25479;SDS011;13393;49.378;8.686;2023-10-19T14:03:28;5.32;;;3.35;;
25479;SDS011;13393;49.378;8.686;2023-10-19T14:05:57;3.85;;;2.67;;
25479;SDS011;13393;49.378;8.686;2023-10-19T14:08:23;4.32;;;2.88;;
25479;SDS011;13393;49.378;8.686;2023-10-19T14:10:50;4.43;;;2.80;;
25479;SDS011;13393;49.378;8.686;2023-10-19T14:13:17;6.40;;;3.05;;
25479;SDS011;13393;49.378;8.686;2023-10-19T14:15:43;5.63;;;2.50;;
25479;SDS011;13393;49.378;8.686;2023-10-19T14:18:10;5.28;;;2.90;;
25479;SDS011;13393;49.378;8.686;2023-10-19T14:20:36;4.78;;;3.00;;
25479;SDS011;13393;49.378;8.686;2023-10-19T14:23:07;4.45;;;2.97;;
25479;SDS011;13393;49.378;8.686;2023-10-19T14:25:37;5.75;;;2.70;;
25479;SDS011;13393;49.378;8.686;2023-10-19T14:28:05;2.60;;;2.40;;
25479;SDS011;13393;49.378;8.686;2023-10-19T14:30:35;3.75;;;2.30;;
25479;SDS011;13393;49.378;8.686;2023-10-19T14:33:01;4.05;;;2.35;;
25479;SDS011;13393;49.378;8.686;2023-10-19T14:35:29;3.40;;;2.85;;
25479;SDS011;13393;49.378;8.686;2023-10-19T14:37:55;3.30;;;3.00;;
25479;SDS011;13393;49.378;8.686;2023-10-19T14:40:26;4.97;;;3.17;;
25479;SDS011;13393;49.378;8.686;2023-10-19T14:42:53;4.80;;;3.00;;
25479;SDS011;13393;49.378;8.686;2023-10-19T14:45:23;5.25;;;3.17;;
25479;SDS011;13393;49.378;8.686;2023-10-19T14:47:51;5.50;;;3.05;;
25479;SDS011;13393;49.378;8.686;2023-10-19T14:50:19;5.03;;;3.20;;
25479;SDS011;13393;49.378;8.686;2023-10-19T14:52:46;6.50;;;3.47;;
25479;SDS011;13393;49.378;8.686;2023-10-19T14:55:13;6.20;;;3.58;;
25479;SDS011;13393;49.378;8.686;2023-10-19T14:57:43;4.20;;;3.10;;
25479;SDS011;13393;49.378;8.686;2023-10-19T15:00:10;2.95;;;2.67;;
25479;SDS011;13393;49.378;8.686;2023-10-19T15:02:41;2.60;;;2.40;;